createdAt,value
2022-09-11T00:04:39.824Z,15.20
2022-09-11T00:08:18.126Z,15.30
2022-09-11T00:11:51.712Z,16.70
2022-09-11T00:25:17.116Z,18.40
2022-09-11T00:28:50.834Z,18.30
2022-09-11T00:32:33.704Z,18.00
2022-09-11T00:42:23.856Z,20.80
2022-09-11T00:46:00.287Z,20.20
2022-09-11T00:49:37.005Z,18.80
2022-09-11T00:53:16.465Z,19.10
2022-09-11T01:13:49.552Z,19.00
2022-09-11T01:17:29.022Z,18.40
2022-09-11T01:21:22.546Z,17.70
2022-09-11T01:35:15.668Z,19.70
2022-09-11T01:38:51.024Z,17.60
2022-09-11T01:42:23.794Z,18.20
2022-09-11T01:55:52.201Z,18.10
2022-09-11T01:59:31.546Z,15.40
2022-09-11T02:03:09.760Z,15.80
2022-09-11T02:06:48.082Z,14.70
2022-09-11T02:16:50.337Z,15.30
2022-09-11T02:20:26.885Z,14.40
2022-09-11T02:24:05.395Z,15.30
2022-09-11T02:31:07.703Z,16.40
2022-09-11T02:34:40.412Z,14.90
2022-09-11T02:38:17.417Z,14.40
2022-09-11T02:41:51.995Z,13.90
2022-09-11T02:51:56.233Z,14.60
2022-09-11T02:55:38.895Z,13.10
2022-09-11T02:59:17.614Z,12.30
2022-09-11T03:19:50.513Z,13.70
2022-09-11T03:23:20.642Z,13.10
2022-09-11T03:26:53.030Z,12.20
2022-09-11T03:30:24.573Z,12.20
2022-09-11T03:52:00.921Z,17.10
2022-09-11T03:55:31.252Z,15.90
2022-09-11T03:59:02.402Z,15.10
2022-09-11T04:16:12.754Z,16.80
2022-09-11T04:19:32.101Z,15.50
2022-09-11T04:22:52.261Z,14.50
2022-09-11T04:26:25.650Z,14.80
2022-09-11T04:29:56.661Z,13.60
2022-09-11T04:40:12.505Z,14.00
2022-09-11T04:43:43.290Z,13.50
2022-09-11T04:47:14.179Z,14.30
2022-09-11T05:04:52.500Z,17.60
2022-09-11T05:08:27.711Z,16.70
2022-09-11T05:12:00.464Z,18.20
2022-09-11T05:15:33.450Z,18.10
2022-09-11T05:28:59.380Z,17.70
2022-09-11T05:32:32.171Z,15.90
2022-09-11T05:36:12.570Z,14.80
2022-09-11T06:03:50.889Z,15.30
2022-09-11T06:07:23.920Z,13.30
2022-09-11T06:10:58.443Z,13.10
2022-09-11T06:14:33.190Z,12.70
2022-09-11T06:18:07.650Z,13.70
2022-09-11T06:31:42.760Z,15.00
2022-09-11T06:35:23.618Z,14.90
2022-09-11T06:38:59.602Z,14.60
2022-09-11T06:49:13.690Z,16.50
2022-09-11T06:52:42.541Z,15.40
2022-09-11T06:56:22.499Z,14.50
2022-09-11T06:59:52.749Z,14.70
2022-09-11T07:17:27.646Z,17.30
2022-09-11T07:21:01.050Z,14.80
2022-09-11T07:24:34.271Z,18.30
2022-09-11T07:28:07.742Z,14.10
2022-09-11T07:31:43.186Z,13.70
2022-09-11T07:45:04.553Z,12.40
2022-09-11T07:48:38.481Z,11.30
2022-09-11T07:52:16.604Z,10.90
2022-09-11T08:09:10.639Z,9.50
2022-09-11T08:12:43.890Z,9.30
2022-09-11T08:16:18.103Z,9.40
2022-09-11T08:19:50.880Z,9.10
2022-09-11T08:33:13.686Z,8.80
2022-09-11T08:36:46.679Z,7.90
2022-09-11T08:40:22.039Z,7.60
2022-09-11T08:47:07.811Z,7.10
2022-09-11T08:50:43.899Z,6.70
2022-09-11T08:54:28.071Z,6.70
2022-09-11T08:58:11.630Z,5.40
2022-09-11T09:01:53.277Z,6.40
2022-09-11T09:05:40.562Z,7.20
2022-09-11T09:15:50.102Z,6.20
2022-09-11T09:19:30.080Z,6.40
2022-09-11T09:23:07.410Z,5.60
2022-09-11T09:36:27.863Z,5.70
2022-09-11T09:40:01.186Z,8.20
2022-09-11T09:43:52.014Z,6.40
2022-09-11T09:55:16.033Z,6.60
2022-09-11T09:58:57.111Z,6.50
2022-09-11T10:02:40.225Z,6.30
2022-09-11T10:06:14.652Z,6.30
2022-09-11T10:09:53.055Z,7.00
2022-09-11T10:23:32.513Z,4.40
2022-09-11T10:27:09.700Z,4.50
2022-09-11T10:30:48.662Z,3.50
2022-09-11T10:34:25.538Z,3.80
2022-09-11T10:38:18.277Z,4.20
2022-09-11T10:52:16.695Z,3.20
2022-09-11T10:55:58.353Z,3.50
2022-09-11T10:59:42.795Z,2.80
2022-09-11T11:06:38.656Z,2.30
2022-09-11T11:10:28.973Z,2.70
2022-09-11T11:14:26.902Z,2.80
2022-09-11T11:28:34.980Z,2.20
2022-09-11T11:32:19.610Z,2.30
2022-09-11T11:36:04.120Z,2.40
2022-09-11T11:49:45.996Z,2.30
2022-09-11T11:53:26.231Z,2.70
2022-09-11T11:57:08.901Z,2.50
2022-09-11T12:00:55.254Z,2.80
2022-09-11T12:04:39.284Z,3.10
2022-09-11T12:08:17.334Z,3.60
2022-09-11T12:11:55.901Z,3.70
2022-09-11T12:29:42.092Z,2.90
2022-09-11T12:33:57.163Z,3.20
2022-09-11T12:37:39.027Z,3.00
2022-09-11T12:41:23.948Z,2.90
2022-09-11T12:54:35.231Z,3.30
2022-09-11T12:58:25.820Z,2.50
2022-09-11T13:02:01.627Z,2.50
2022-09-11T13:12:39.263Z,2.80
2022-09-11T13:16:24.753Z,3.10
2022-09-11T13:20:16.001Z,3.10
2022-09-11T13:40:33.512Z,2.70
2022-09-11T13:44:14.061Z,2.70
2022-09-11T13:48:44.015Z,2.70
2022-09-11T14:07:28.261Z,4.40
2022-09-11T14:11:11.400Z,3.70
2022-09-11T14:28:42.812Z,5.40
2022-09-11T14:32:34.810Z,5.40
2022-09-11T14:36:08.126Z,5.30
2022-09-11T14:39:45.303Z,6.20
2022-09-11T14:53:31.823Z,5.40
2022-09-11T14:57:21.226Z,5.50
2022-09-11T15:00:57.531Z,5.30
2022-09-11T15:04:32.810Z,4.90
2022-09-11T15:24:57.880Z,5.90
2022-09-11T15:28:32.219Z,5.40
2022-09-11T15:32:07.971Z,5.60
2022-09-11T15:35:42.996Z,4.90
2022-09-11T15:39:24.833Z,5.20
2022-09-11T15:43:00.031Z,5.20
2022-09-11T15:53:49.060Z,4.80
2022-09-11T15:57:19.819Z,5.20
2022-09-11T16:00:52.976Z,4.40
2022-09-11T16:04:28.549Z,4.30
2022-09-11T16:08:01.930Z,5.10
2022-09-11T16:18:09.670Z,4.70
2022-09-11T16:21:51.185Z,4.60
2022-09-11T16:25:28.450Z,4.90
2022-09-11T16:29:03.561Z,4.90
2022-09-11T16:43:00.162Z,5.40
2022-09-11T16:46:33.690Z,4.80
2022-09-11T16:50:09.837Z,4.80
2022-09-11T17:03:45.078Z,5.70
2022-09-11T17:07:15.650Z,5.70
2022-09-11T17:10:49.770Z,5.00
2022-09-11T17:14:20.761Z,5.50
2022-09-11T17:17:54.626Z,5.40
2022-09-11T17:21:26.551Z,5.30
2022-09-11T17:41:54.871Z,7.20
2022-09-11T17:45:31.293Z,6.90
2022-09-11T17:49:04.075Z,6.50
2022-09-11T17:52:38.230Z,6.90
2022-09-11T18:06:01.080Z,6.60
2022-09-11T18:09:34.115Z,6.60
2022-09-11T18:13:10.638Z,6.30
2022-09-11T18:16:48.686Z,6.00
2022-09-11T18:34:09.322Z,6.30
2022-09-11T18:37:40.648Z,6.20
2022-09-11T18:41:18.018Z,6.30
2022-09-11T18:44:50.373Z,6.50
2022-09-11T19:01:44.375Z,5.50
2022-09-11T19:05:00.289Z,5.70
2022-09-11T19:08:33.255Z,5.90
2022-09-11T19:29:29.311Z,4.90
2022-09-11T19:36:44.822Z,4.60
2022-09-11T19:40:20.528Z,4.50
2022-09-11T19:48:00.250Z,4.70
2022-09-11T20:01:31.412Z,5.00
2022-09-11T20:05:07.543Z,4.70
2022-09-11T20:08:43.961Z,4.40
2022-09-11T20:12:19.062Z,4.30
2022-09-11T20:15:53.196Z,4.40
2022-09-11T20:33:11.983Z,5.10
2022-09-11T20:36:48.223Z,4.90
2022-09-11T20:43:49.660Z,4.70
2022-09-11T21:04:33.869Z,4.80
2022-09-11T21:08:08.312Z,4.90
2022-09-11T21:11:43.006Z,6.00
2022-09-11T21:15:16.163Z,5.70
2022-09-11T21:18:42.765Z,5.30
2022-09-11T21:35:40.436Z,4.80
2022-09-11T21:39:16.295Z,5.40
2022-09-11T21:45:56.526Z,5.50
2022-09-11T21:49:31.555Z,5.00
2022-09-11T21:53:09.371Z,5.20
2022-09-11T22:09:43.468Z,5.50
2022-09-11T22:13:06.319Z,5.50
2022-09-11T22:16:41.295Z,5.50
2022-09-11T22:33:50.691Z,5.80
2022-09-11T22:37:22.867Z,5.90
2022-09-11T22:40:57.624Z,5.70
2022-09-11T22:44:28.918Z,6.00
2022-09-11T22:57:56.833Z,6.50
2022-09-11T23:01:31.417Z,6.80
2022-09-11T23:05:23.730Z,6.80
2022-09-11T23:18:46.148Z,7.50
2022-09-11T23:22:20.640Z,7.80
2022-09-11T23:25:57.414Z,8.10
2022-09-11T23:42:47.857Z,6.90
2022-09-11T23:46:22.601Z,7.90
2022-09-11T23:49:56.361Z,7.60
